Time;durP1;ratioP1;P1;durP2;ratioP2;P2;SDS_P1;SDS_P2;PMS_P1;PMS_P2;Temp;Humidity;BMP_temperature;BMP_pressure;BME280_temperature;BME280_humidity;BME280_pressure;Samples;Min_cycle;Max_cycle;Signal;HPM_P1;HPM_P2
2022/10/09 00:01:11;;;;;;;15.43;8.63;;;;;;;11.10;86.75;100655.86;1679881;84;25679;-66
2022/10/09 00:03:43;;;;;;;14.35;8.30;;;;;;;11.09;87.14;100657.77;1679991;84;25577;-67
2022/10/09 00:06:14;;;;;;;15.13;8.38;;;;;;;11.10;87.49;100660.74;1679888;84;27468;-67
2022/10/09 00:08:43;;;;;;;15.48;8.63;;;;;;;11.11;87.74;100664.23;1679802;84;25481;-68
2022/10/09 00:11:16;;;;;;;;;;;;;;;11.11;87.99;100662.89;1682413;84;25490;-66
2022/10/09 00:13:43;;;;;;;14.53;9.18;;;;;;;11.11;88.21;100666.39;1676971;84;25649;-66
2022/10/09 00:16:13;;;;;;;14.93;8.98;;;;;;;11.13;88.44;100670.14;1677476;84;25585;-70
2022/10/09 00:18:41;;;;;;;19.48;9.70;;;;;;;11.14;88.66;100665.78;1657019;86;29582;-66
2022/10/09 00:21:21;;;;;;;15.05;9.10;;;;;;;11.16;88.48;100673.61;1670251;84;25692;-66
2022/10/09 00:23:49;;;;;;;17.07;9.50;;;;;;;11.15;88.51;100675.52;1700374;84;25699;-65
2022/10/09 00:26:16;;;;;;;15.45;9.33;;;;;;;11.15;88.45;100670.64;1696682;84;25696;-66
2022/10/09 00:28:42;;;;;;;15.13;10.18;;;;;;;11.15;88.45;100678.77;1693397;84;25607;-66
2022/10/09 00:31:10;;;;;;;15.25;8.80;;;;;;;11.12;88.47;100673.98;1697042;84;27424;-67
2022/10/09 00:33:37;;;;;;;17.87;9.23;;;;;;;11.12;88.64;100669.92;1697054;84;25410;-66
2022/10/09 00:36:09;;;;;;;13.05;8.83;;;;;;;11.09;88.53;100676.72;1651697;85;25641;-66
2022/10/09 00:38:36;;;;;;;16.30;9.75;;;;;;;11.08;88.42;100681.08;1680178;84;25694;-66
2022/10/09 00:41:03;;;;;;;15.25;8.75;;;;;;;11.04;88.61;100675.48;1685868;84;25588;-66
2022/10/09 00:43:55;;;;;;;17.12;9.38;;;;;;;11.03;88.87;100677.92;1673548;84;27873;-66
2022/10/09 00:46:47;;;;;;;14.05;8.85;;;;;;;11.02;88.98;100678.48;1663666;86;25738;-66
2022/10/09 00:49:27;;;;;;;12.28;8.90;;;;;;;11.01;89.08;100674.16;1689918;84;25407;-65
2022/10/09 00:51:57;;;;;;;14.50;9.53;;;;;;;11.01;89.04;100678.22;1675977;84;25627;-67
2022/10/09 00:54:28;;;;;;;15.40;9.90;;;;;;;11.01;89.03;100678.22;1673345;84;25607;-66
2022/10/09 00:56:54;;;;;;;13.55;8.98;;;;;;;11.00;89.11;100674.48;1673359;85;27351;-66
2022/10/09 00:59:22;;;;;;;14.13;9.00;;;;;;;11.01;89.23;100674.16;1695792;84;25718;-65
2022/10/09 01:01:48;;;;;;;14.53;8.83;;;;;;;11.02;89.23;100674.42;1679159;84;25480;-66
2022/10/09 01:04:14;;;;;;;12.70;8.15;;;;;;;11.03;89.14;100671.98;1676558;84;25548;-65
2022/10/09 01:07:18;;;;;;;14.05;8.83;;;;;;;11.03;89.11;100665.20;1701084;84;25649;-65
2022/10/09 01:10:21;;;;;;;18.52;8.63;;;;;;;11.01;88.69;100667.95;1700834;83;27974;-66
2022/10/09 01:13:06;;;;;;;17.45;9.08;;;;;;;10.98;88.44;100676.14;1700382;83;25530;-65
2022/10/09 01:15:46;;;;;;;11.90;7.55;;;;;;;10.93;88.22;100681.66;1700963;83;25487;-67
2022/10/09 01:18:27;;;;;;;12.33;7.67;;;;;;;10.91;88.21;100691.96;1677433;84;25737;-66
2022/10/09 01:21:01;;;;;;;12.53;7.65;;;;;;;10.87;88.20;100688.83;1686939;84;25447;-66
2022/10/09 01:23:53;;;;;;;13.03;7.47;;;;;;;10.85;88.44;100697.24;1660756;86;27309;-66
2022/10/09 01:26:56;;;;;;;15.55;7.95;;;;;;;10.84;88.70;100698.33;1692149;84;25626;-65
2022/10/09 01:29:26;;;;;;;11.57;7.95;;;;;;;10.85;88.98;100698.59;1686531;84;25992;-65
2022/10/09 01:31:54;;;;;;;13.15;7.78;;;;;;;10.85;89.14;100701.30;1691360;84;25600;-65
2022/10/09 01:34:22;;;;;;;12.20;7.65;;;;;;;10.87;89.24;100695.03;1684116;84;25694;-68
2022/10/09 01:36:50;;;;;;;10.75;7.33;;;;;;;10.89;89.21;100708.27;1644157;86;28096;-68
2022/10/09 01:39:20;;;;;;;12.68;7.70;;;;;;;10.90;89.28;100715.30;1682033;84;25469;-68
2022/10/09 01:41:50;;;;;;;12.95;7.53;;;;;;;10.91;89.30;100710.11;1662897;85;25555;-68
2022/10/09 01:44:18;;;;;;;;;;;;;;;10.91;89.21;100720.94;1671019;85;25671;-68
2022/10/09 01:46:45;;;;;;;13.22;7.12;;;;;;;10.90;89.01;100719.35;1657156;86;25615;-67
2022/10/09 01:49:34;;;;;;;12.98;7.85;;;;;;;10.88;88.99;100716.95;1666361;85;27924;-66
2022/10/09 01:52:18;;;;;;;16.07;8.15;;;;;;;10.89;89.01;100719.09;1670974;85;25687;-66
2022/10/09 01:55:02;;;;;;;14.43;8.38;;;;;;;10.88;88.91;100726.95;1676172;85;25641;-66
2022/10/09 01:58:00;;;;;;;13.72;7.97;;;;;;;10.88;88.85;100729.66;1676418;84;27857;-68
2022/10/09 02:00:30;;;;;;;11.87;8.37;;;;;;;10.87;88.72;100729.42;1657218;84;25710;-65
2022/10/09 02:02:57;;;;;;;;;;;;;;;10.84;88.76;100730.28;1680167;84;27332;-66
2022/10/09 02:05:27;;;;;;;12.70;8.25;;;;;;;10.84;88.86;100732.98;1671224;84;25542;-66
2022/10/09 02:07:56;;;;;;;13.50;8.80;;;;;;;10.86;89.08;100738.06;1666521;85;25669;-67
2022/10/09 02:10:24;;;;;;;14.95;9.28;;;;;;;10.87;89.14;100736.98;1672258;84;26242;-67
2022/10/09 02:12:57;;;;;;;14.85;9.53;;;;;;;10.88;88.97;100743.18;1677430;84;25232;-67
2022/10/09 02:15:38;;;;;;;13.13;9.40;;;;;;;10.89;88.87;100746.94;1671203;84;27321;-66
2022/10/09 02:18:09;;;;;;;14.30;8.63;;;;;;;10.88;88.66;100747.24;1672196;84;25397;-66
2022/10/09 02:20:39;;;;;;;12.40;8.93;;;;;;;10.87;88.60;100749.72;1682697;85;25783;-66
2022/10/09 02:23:08;;;;;;;17.10;8.38;;;;;;;10.87;88.74;100753.77;1665610;85;26324;-66
2022/10/09 02:25:35;;;;;;;13.30;8.20;;;;;;;10.87;88.56;100757.83;1674334;84;25765;-66
2022/10/09 02:28:03;;;;;;;11.20;8.18;;;;;;;10.88;88.61;100762.13;1660869;86;27342;-66
2022/10/09 02:30:52;;;;;;;9.08;8.08;;;;;;;10.88;88.68;100757.54;1669188;84;25928;-66
2022/10/09 02:33:22;;;;;;;12.55;8.25;;;;;;;10.89;88.70;100759.69;1676312;84;25576;-65
2022/10/09 02:35:48;;;;;;;12.90;8.30;;;;;;;10.86;88.49;100763.77;1660075;85;25481;-67
2022/10/09 02:38:14;;;;;;;11.88;7.90;;;;;;;10.88;88.53;100768.89;1671164;85;25745;-68
2022/10/09 02:40:40;;;;;;;14.93;7.78;;;;;;;10.88;88.70;100766.19;1672152;84;27377;-68
2022/10/09 02:43:06;;;;;;;14.20;8.33;;;;;;;10.89;88.48;100772.66;1673274;84;32998;-68
2022/10/09 02:45:32;;;;;;;14.40;7.75;;;;;;;10.85;88.21;100773.02;1685138;84;25569;-68
2022/10/09 02:47:58;;;;;;;16.55;8.00;;;;;;;10.83;88.24;100773.88;1673287;85;25664;-67
2022/10/09 02:50:25;;;;;;;11.38;7.62;;;;;;;10.83;88.45;100779.28;1673316;85;25420;-67
2022/10/09 02:52:51;;;;;;;11.88;7.80;;;;;;;10.80;88.11;100783.94;1673344;85;27415;-67
2022/10/09 02:55:17;;;;;;;14.33;8.05;;;;;;;10.77;88.11;100788.02;1671168;84;25552;-67
2022/10/09 02:57:44;;;;;;;12.23;7.75;;;;;;;10.77;88.20;100788.58;1693763;84;25481;-67
2022/10/09 03:00:12;;;;;;;11.95;8.40;;;;;;;10.73;88.05;100795.70;1669205;84;25687;-67
2022/10/09 03:02:38;;;;;;;16.20;8.00;;;;;;;10.70;88.00;100805.20;1660377;84;25592;-67
2022/10/09 03:05:06;;;;;;;9.45;7.17;;;;;;;10.67;87.73;100800.38;1694263;84;27487;-67
2022/10/09 03:07:32;;;;;;;11.88;7.47;;;;;;;10.64;87.91;100809.91;1677547;84;25395;-67
2022/10/09 03:09:58;;;;;;;13.58;7.00;;;;;;;10.62;87.96;100803.99;1683802;84;25620;-67
2022/10/09 03:12:24;;;;;;;14.45;7.37;;;;;;;10.59;87.69;100809.16;1687814;84;25741;-68
2022/10/09 03:14:52;;;;;;;11.70;7.45;;;;;;;10.54;87.56;100810.60;1686211;84;25608;-65
2022/10/09 03:17:18;;;;;;;15.55;7.42;;;;;;;10.53;87.75;100812.52;1678130;84;27406;-66
2022/10/09 03:19:44;;;;;;;16.48;7.33;;;;;;;10.49;87.57;100815.56;1689342;84;25642;-65
2022/10/09 03:22:11;;;;;;;11.80;7.10;;;;;;;10.48;87.64;100812.59;1677433;84;25617;-67
2022/10/09 03:24:37;;;;;;;11.75;7.15;;;;;;;10.45;87.61;100820.77;1672225;85;26248;-68
2022/10/09 03:27:03;;;;;;;13.90;7.00;;;;;;;10.42;87.64;100820.00;1694407;84;32446;-67
2022/10/09 03:29:29;;;;;;;10.48;6.25;;;;;;;10.36;87.42;100825.22;1680536;84;27426;-67
2022/10/09 03:31:55;;;;;;;8.33;6.78;;;;;;;10.33;87.45;100820.95;1666923;85;33104;-67
2022/10/09 03:34:21;;;;;;;8.78;6.50;;;;;;;10.31;87.46;100827.18;1672840;85;25447;-67
2022/10/09 03:36:48;;;;;;;10.50;6.65;;;;;;;10.26;87.33;100831.55;1681893;84;25610;-67
2022/10/09 03:39:14;;;;;;;11.08;7.05;;;;;;;10.23;87.45;100832.69;1679691;84;25452;-67
2022/10/09 03:41:40;;;;;;;9.23;6.10;;;;;;;10.21;87.42;100833.53;1673794;84;29574;-68
2022/10/09 03:44:06;;;;;;;13.22;7.08;;;;;;;10.20;87.59;100840.84;1673247;84;25388;-67
2022/10/09 03:46:32;;;;;;;10.35;6.87;;;;;;;10.20;87.64;100838.15;1673324;85;25658;-67
2022/10/09 03:48:58;;;;;;;10.23;6.67;;;;;;;10.18;87.72;100837.64;1673264;85;34686;-67
2022/10/09 03:51:25;;;;;;;15.03;7.03;;;;;;;10.19;87.81;100843.84;1671482;85;32479;-67
2022/10/09 03:53:51;;;;;;;11.10;6.95;;;;;;;10.15;87.58;100844.16;1672495;84;27403;-67
2022/10/09 03:56:18;;;;;;;11.88;7.25;;;;;;;10.14;87.61;100851.47;1668257;85;25396;-67
2022/10/09 03:58:44;;;;;;;13.95;7.42;;;;;;;10.12;87.52;100852.88;1668756;84;25667;-67
2022/10/09 04:01:10;;;;;;;15.40;7.50;;;;;;;10.08;87.45;100855.36;1671778;85;25881;-67
2022/10/09 04:03:37;;;;;;;16.77;7.08;;;;;;;10.06;87.61;100858.88;1670127;84;25638;-67
2022/10/09 04:06:04;;;;;;;13.53;7.65;;;;;;;10.04;87.47;100866.48;1674708;84;27336;-67
2022/10/09 04:08:31;;;;;;;14.18;7.50;;;;;;;10.02;87.47;100868.67;1673289;84;25467;-67
2022/10/09 04:10:59;;;;;;;11.28;7.80;;;;;;;9.99;87.53;100863.29;1692718;84;25591;-67
2022/10/09 04:13:26;;;;;;;12.70;7.78;;;;;;;10.00;87.78;100867.61;1687671;84;25798;-67
2022/10/09 04:15:53;;;;;;;14.90;8.48;;;;;;;9.98;87.69;100861.70;1671772;84;25579;-68
2022/10/09 04:18:20;;;;;;;12.15;7.78;;;;;;;9.97;87.65;100867.39;1665755;84;27421;-68
2022/10/09 04:20:52;;;;;;;10.60;8.00;;;;;;;9.98;87.70;100869.81;1691270;84;25582;-68
2022/10/09 04:23:20;;;;;;;12.82;8.73;;;;;;;9.98;87.78;100867.10;1687709;84;25373;-68
2022/10/09 04:25:46;;;;;;;12.45;8.23;;;;;;;10.00;87.94;100866.81;1664014;85;25648;-67
2022/10/09 04:28:13;;;;;;;15.93;9.05;;;;;;;9.97;87.69;100861.43;1684245;84;25556;-67
2022/10/09 04:30:40;;;;;;;21.95;9.40;;;;;;;9.96;87.62;100860.37;1693438;84;27408;-67
2022/10/09 04:33:06;;;;;;;12.20;8.10;;;;;;;9.92;87.46;100870.95;1683578;84;25418;-67
2022/10/09 04:35:32;;;;;;;15.15;9.15;;;;;;;9.90;87.60;100867.19;1688357;84;25546;-67
2022/10/09 04:37:58;;;;;;;14.78;9.08;;;;;;;9.89;87.44;100876.94;1670495;85;25732;-67
2022/10/09 04:40:25;;;;;;;16.05;9.95;;;;;;;9.87;87.44;100883.18;1674466;85;25451;-67
2022/10/09 04:42:51;;;;;;;15.65;9.68;;;;;;;9.85;87.57;100874.56;1667681;84;28483;-68
2022/10/09 04:45:17;;;;;;;13.83;9.70;;;;;;;9.83;87.56;100880.26;1679710;84;25566;-68
2022/10/09 04:47:43;;;;;;;19.87;10.93;;;;;;;9.82;87.62;100886.73;1661503;86;25618;-67
2022/10/09 04:50:10;;;;;;;17.75;10.08;;;;;;;9.81;87.58;100887.85;1682810;84;27877;-67
2022/10/09 04:52:36;;;;;;;17.07;11.08;;;;;;;9.82;87.79;100894.05;1689346;84;25436;-68
2022/10/09 04:55:03;;;;;;;19.07;10.90;;;;;;;9.80;87.67;100898.39;1690516;84;27409;-68
2022/10/09 04:57:29;;;;;;;24.02;12.05;;;;;;;9.81;87.72;100900.56;1689528;84;27229;-67
2022/10/09 04:59:55;;;;;;;18.65;11.45;;;;;;;9.80;87.62;100914.60;1690566;84;25629;-68
2022/10/09 05:02:21;;;;;;;17.67;11.97;;;;;;;9.79;87.55;100915.71;1672465;84;25690;-67
2022/10/09 05:04:47;;;;;;;15.93;11.50;;;;;;;9.78;87.53;100918.14;1675026;84;25492;-67
2022/10/09 05:07:14;;;;;;;20.05;12.80;;;;;;;9.76;87.28;100921.69;1672699;84;27348;-68
2022/10/09 05:09:40;;;;;;;20.05;12.55;;;;;;;9.71;87.18;100924.45;1662198;84;25472;-67
2022/10/09 05:12:06;;;;;;;16.82;12.33;;;;;;;9.69;87.24;100930.13;1690386;84;25704;-68
2022/10/09 05:14:32;;;;;;;17.85;13.43;;;;;;;9.67;87.33;100928.27;1684595;84;25687;-67
2022/10/09 05:17:03;;;;;;;26.77;13.55;;;;;;;9.67;87.37;100936.38;1665747;86;25681;-67
2022/10/09 05:19:27;;;;;;;21.42;13.68;;;;;;;9.65;87.26;100934.51;1682031;84;29451;-67
2022/10/09 05:21:53;;;;;;;19.20;12.68;;;;;;;9.61;87.23;100931.31;1685664;84;25761;-67
2022/10/09 05:24:20;;;;;;;17.40;12.65;;;;;;;9.62;87.42;100935.60;1665020;84;25737;-67
2022/10/09 05:26:46;;;;;;;21.05;12.68;;;;;;;9.62;87.47;100947.76;1669995;84;26334;-67
2022/10/09 05:29:12;;;;;;;20.27;14.07;;;;;;;9.57;87.34;100948.64;1680610;84;25427;-67
2022/10/09 05:31:38;;;;;;;18.77;14.28;;;;;;;9.54;87.19;100958.10;1666066;84;27388;-68
2022/10/09 05:34:04;;;;;;;22.60;15.45;;;;;;;9.51;87.32;100964.62;1659702;86;25696;-68
2022/10/09 05:36:31;;;;;;;22.62;14.00;;;;;;;9.47;87.36;100966.30;1677092;84;25562;-67
2022/10/09 05:38:59;;;;;;;17.48;14.20;;;;;;;9.46;87.43;100974.12;1676899;84;25722;-68
2022/10/09 05:41:28;;;;;;;19.70;13.62;;;;;;;9.44;87.56;100974.41;1664626;86;25586;-68
2022/10/09 05:43:58;;;;;;;22.27;14.00;;;;;;;9.44;87.70;100983.86;1677716;84;27529;-65
2022/10/09 05:46:25;;;;;;;20.02;14.43;;;;;;;9.44;87.78;100976.31;1679060;84;25615;-67
2022/10/09 05:48:59;;;;;;;20.72;13.90;;;;;;;9.46;88.00;100983.58;1671000;84;25579;-66
2022/10/09 05:51:29;;;;;;;22.25;14.40;;;;;;;9.48;87.94;100982.73;1667614;84;26563;-66
2022/10/09 05:53:57;;;;;;;18.95;13.28;;;;;;;9.50;88.09;100984.08;1666213;84;25650;-66
2022/10/09 05:56:32;;;;;;;15.78;13.13;;;;;;;9.53;88.00;101000.24;1668584;84;27897;-66
2022/10/09 05:59:02;;;;;;;19.85;13.03;;;;;;;9.56;88.16;101005.64;1670874;84;25726;-67
2022/10/09 06:01:38;;;;;;;17.85;12.05;;;;;;;9.58;88.03;101006.95;1652697;84;25765;-66
2022/10/09 06:04:08;;;;;;;20.97;13.10;;;;;;;9.58;87.79;101011.55;1666756;84;25781;-67
2022/10/09 06:06:38;;;;;;;19.00;12.33;;;;;;;9.60;87.80;101008.81;1667538;84;25460;-67
2022/10/09 06:09:05;;;;;;;18.10;11.80;;;;;;;9.61;87.70;101011.78;1676922;84;27478;-66
2022/10/09 06:11:37;;;;;;;31.42;19.50;;;;;;;9.61;87.54;101009.64;1671946;84;25653;-66
2022/10/09 06:14:06;;;;;;;19.67;13.18;;;;;;;9.63;87.63;101022.31;1688417;84;25597;-67
2022/10/09 06:16:36;;;;;;;14.00;11.30;;;;;;;9.67;88.01;101020.64;1693283;84;25704;-66
2022/10/09 06:19:04;;;;;;;19.85;11.15;;;;;;;9.71;87.80;101028.45;1696710;84;25752;-67
2022/10/09 06:21:31;;;;;;;13.05;10.00;;;;;;;9.72;87.56;101030.87;1699483;84;27296;-66
2022/10/09 06:24:00;;;;;;;12.98;9.80;;;;;;;9.73;87.43;101037.06;1699394;84;25764;-66
2022/10/09 06:26:29;;;;;;;12.65;9.00;;;;;;;9.76;87.35;101040.56;1694723;84;25399;-66
2022/10/09 06:28:59;;;;;;;14.30;9.48;;;;;;;9.81;87.40;101047.81;1687735;84;29070;-66
2022/10/09 06:31:29;;;;;;;14.80;9.68;;;;;;;9.85;87.48;101050.20;1685445;84;25489;-67
2022/10/09 06:33:59;;;;;;;14.85;9.23;;;;;;;9.89;87.35;101049.34;1675305;84;27588;-67
2022/10/09 06:36:28;;;;;;;11.30;8.25;;;;;;;9.91;87.19;101053.13;1700347;84;25718;-67
2022/10/09 06:38:59;;;;;;;9.53;7.97;;;;;;;9.96;87.20;101057.64;1688966;84;25812;-67
2022/10/09 06:41:28;;;;;;;16.10;8.85;;;;;;;10.01;87.32;101061.65;1673358;84;26266;-65
2022/10/09 06:44:02;;;;;;;12.55;7.72;;;;;;;10.06;87.03;101065.65;1673456;84;25461;-67
2022/10/09 06:46:33;;;;;;;12.00;7.75;;;;;;;10.09;86.78;101073.19;1673185;84;28030;-65
2022/10/09 06:49:01;;;;;;;11.22;7.53;;;;;;;10.13;86.72;101074.25;1673071;85;25742;-67
2022/10/09 06:51:29;;;;;;;11.70;8.15;;;;;;;10.15;86.59;101077.47;1673162;85;25474;-67
2022/10/09 06:53:58;;;;;;;10.93;8.03;;;;;;;10.19;86.37;101083.09;1672335;84;26260;-65
2022/10/09 06:56:29;;;;;;;9.43;8.20;;;;;;;10.23;86.31;101086.83;1671638;85;25787;-66
2022/10/09 06:59:01;;;;;;;14.70;8.00;;;;;;;10.24;86.20;101092.50;1674884;84;27496;-66
2022/10/09 07:01:30;;;;;;;26.55;18.12;;;;;;;10.28;86.36;101098.41;1673233;84;25582;-66
2022/10/09 07:04:05;;;;;;;16.07;8.73;;;;;;;10.32;86.28;101098.67;1672901;84;25593;-66
2022/10/09 07:06:39;;;;;;;11.57;6.40;;;;;;;10.34;85.99;101099.19;1669890;85;25753;-66
2022/10/09 07:09:10;;;;;;;9.68;6.03;;;;;;;10.35;85.38;101102.69;1672472;84;25574;-67
2022/10/09 07:11:41;;;;;;;10.28;4.97;;;;;;;10.34;85.00;101111.36;1668022;84;26843;-66
2022/10/09 07:14:10;;;;;;;6.20;4.78;;;;;;;10.38;85.07;101119.14;1668175;84;25784;-67
2022/10/09 07:16:42;;;;;;;6.00;4.53;;;;;;;10.39;84.53;101118.06;1681310;84;25496;-66
2022/10/09 07:19:10;;;;;;;8.73;5.30;;;;;;;10.40;84.31;101118.33;1677436;84;26297;-65
2022/10/09 07:21:41;;;;;;;5.35;4.47;;;;;;;10.39;83.44;101119.97;1658813;84;25594;-65
2022/10/09 07:24:09;;;;;;;9.15;3.92;;;;;;;10.42;83.78;101126.95;1671167;84;27205;-65
2022/10/09 07:26:39;;;;;;;6.35;3.75;;;;;;;10.55;84.02;101126.00;1683530;84;25645;-65
2022/10/09 07:29:08;;;;;;;7.00;4.25;;;;;;;10.60;83.63;101132.15;1676805;84;25453;-66
2022/10/09 07:31:35;;;;;;;5.40;4.35;;;;;;;10.65;83.04;101133.44;1666997;85;25624;-65
2022/10/09 07:34:02;;;;;;;4.70;3.92;;;;;;;10.68;82.65;101126.66;1673087;85;26386;-65
2022/10/09 07:36:28;;;;;;;10.20;5.10;;;;;;;10.66;82.42;101122.09;1675462;84;27377;-65
2022/10/09 07:38:57;;;;;;;5.60;4.75;;;;;;;10.73;82.21;101136.07;1676036;84;25630;-67
2022/10/09 07:41:26;;;;;;;6.70;4.55;;;;;;;10.75;82.27;101139.28;1674867;84;25708;-65
2022/10/09 07:43:52;;;;;;;7.67;4.05;;;;;;;10.79;82.24;101148.42;1690182;84;25790;-65
2022/10/09 07:46:21;;;;;;;6.22;4.00;;;;;;;10.84;82.38;101148.92;1663599;85;25497;-64
2022/10/09 07:48:49;;;;;;;7.12;3.90;;;;;;;10.89;82.36;101152.91;1700563;84;31640;-66
2022/10/09 07:51:21;;;;;;;7.92;4.37;;;;;;;10.92;81.50;101155.60;1704731;84;25593;-66
2022/10/09 07:53:47;;;;;;;4.28;3.58;;;;;;;10.92;81.72;101155.05;1691033;84;25566;-65
2022/10/09 07:56:27;;;;;;;8.08;4.12;;;;;;;10.96;81.58;101157.98;1694898;84;25674;-66
2022/10/09 07:58:58;;;;;;;8.15;3.98;;;;;;;11.01;81.48;101171.45;1690220;84;25485;-65
2022/10/09 08:01:27;;;;;;;6.20;3.50;;;;;;;11.06;81.25;101170.58;1686168;84;27342;-67
2022/10/09 08:03:54;;;;;;;5.40;3.77;;;;;;;11.08;80.88;101173.24;1680600;84;25725;-65
2022/10/09 08:06:21;;;;;;;6.55;4.30;;;;;;;11.11;80.83;101177.29;1668745;84;25587;-66
2022/10/09 08:08:53;;;;;;;6.90;3.83;;;;;;;11.14;80.76;101173.45;1675876;84;25614;-65
2022/10/09 08:11:21;;;;;;;6.50;4.42;;;;;;;11.20;81.02;101183.13;1685530;84;25672;-66
2022/10/09 08:13:49;;;;;;;5.67;4.47;;;;;;;11.30;81.12;101189.48;1679103;84;27410;-66
2022/10/09 08:16:18;;;;;;;6.17;3.87;;;;;;;11.33;80.42;101188.35;1688275;84;25688;-66
2022/10/09 08:18:45;;;;;;;5.12;3.77;;;;;;;11.40;80.08;101190.70;1677934;84;25659;-66
2022/10/09 08:21:16;;;;;;;8.15;4.22;;;;;;;11.49;80.30;101190.31;1680627;84;26229;-66
2022/10/09 08:23:43;;;;;;;8.13;3.75;;;;;;;11.57;80.24;101191.55;1691295;84;25781;-66
2022/10/09 08:26:22;;;;;;;5.08;3.33;;;;;;;11.65;80.08;101193.59;1691792;84;27955;-67
2022/10/09 08:28:55;;;;;;;5.95;4.25;;;;;;;11.70;79.81;101199.50;1683737;84;25769;-66
2022/10/09 08:31:22;;;;;;;5.67;4.15;;;;;;;11.76;79.27;101203.20;1682605;84;25661;-65
2022/10/09 08:33:54;;;;;;;5.90;4.25;;;;;;;11.82;78.86;101202.56;1682437;84;25840;-66
2022/10/09 08:36:21;;;;;;;6.12;4.53;;;;;;;11.84;78.55;101202.27;1682963;84;25691;-66
2022/10/09 08:38:48;;;;;;;5.85;4.47;;;;;;;11.86;78.71;101206.84;1677248;84;27385;-66
2022/10/09 08:41:26;;;;;;;5.62;4.15;;;;;;;11.87;78.36;101209.25;1671728;84;25430;-66
2022/10/09 08:44:17;;;;;;;7.50;5.33;;;;;;;11.87;78.21;101211.17;1674308;84;25791;-64
2022/10/09 08:47:10;;;;;;;5.53;4.72;;;;;;;11.88;77.85;101215.47;1678121;84;25823;-66
2022/10/09 08:50:01;;;;;;;10.08;4.92;;;;;;;11.86;77.63;101213.61;1639196;86;25668;-67
2022/10/09 08:52:48;;;;;;;7.72;4.90;;;;;;;11.79;77.68;101220.76;1691195;84;27425;-65
2022/10/09 08:55:26;;;;;;;11.57;4.78;;;;;;;11.76;77.56;101226.23;1685011;84;25721;-66
2022/10/09 08:57:56;;;;;;;7.00;4.72;;;;;;;11.71;77.21;101231.73;1669142;84;25784;-66
2022/10/09 09:00:26;;;;;;;8.03;4.47;;;;;;;11.64;76.84;101236.69;1674592;84;25750;-66
2022/10/09 09:03:32;;;;;;;6.60;4.47;;;;;;;11.58;77.20;101237.88;1661660;85;25697;-65
2022/10/09 09:06:19;;;;;;;7.50;4.55;;;;;;;11.58;77.67;101241.38;1679928;84;27360;-66
2022/10/09 09:09:12;;;;;;;6.75;4.55;;;;;;;11.63;77.88;101243.22;1676594;84;25892;-65
2022/10/09 09:12:06;;;;;;;9.33;4.35;;;;;;;11.68;78.04;101237.73;1667070;84;25802;-65
2022/10/09 09:15:09;;;;;;;5.67;3.83;;;;;;;11.76;78.02;101237.60;1674460;84;25795;-67
2022/10/09 09:18:21;;;;;;;9.05;3.98;;;;;;;11.89;78.23;101240.94;1669527;84;25719;-65
2022/10/09 09:20:55;;;;;;;7.65;5.40;;;;;;;12.13;79.38;101242.77;1665756;84;27423;-66
2022/10/09 09:23:29;;;;;;;7.20;4.28;;;;;;;12.27;77.05;101242.81;1670679;84;25697;-64
2022/10/09 09:25:58;;;;;;;11.22;4.53;;;;;;;12.32;77.20;101241.36;1663895;84;26355;-66
2022/10/09 09:28:32;;;;;;;10.75;5.10;;;;;;;12.46;77.17;101245.47;1680709;84;27895;-66
2022/10/09 09:31:19;;;;;;;5.87;4.30;;;;;;;12.60;77.34;101245.48;1689992;84;25794;-65
2022/10/09 09:37:01;;;;;;;7.65;3.83;;;;;;;12.96;75.88;101251.63;1556945;91;25785;-65
2022/10/09 09:39:31;;;;;;;6.85;3.90;;;;;;;13.04;75.39;101255.80;1559665;91;25846;-65
2022/10/09 09:42:12;;;;;;;4.03;3.17;;;;;;;13.11;75.15;101245.89;1553176;91;26556;-66
2022/10/09 09:44:46;;;;;;;5.22;3.10;;;;;;;13.18;74.89;101250.36;1551304;91;25916;-65
2022/10/09 09:47:18;;;;;;;9.70;3.50;;;;;;;13.38;74.88;101249.17;1564618;91;27476;-66
2022/10/09 09:49:56;;;;;;;5.58;3.50;;;;;;;;;;1571385;90;25869;-65
2022/10/09 09:52:27;;;;;;;8.68;3.80;;;;;;;13.54;73.43;101262.42;1574863;90;25917;-66
2022/10/09 09:54:57;;;;;;;13.65;8.38;;;;;;;13.52;73.21;101265.98;1568666;90;25875;-66
2022/10/09 09:57:29;;;;;;;;;;;;;;;13.52;73.02;101265.45;1575861;90;25776;-66
2022/10/09 10:00:15;;;;;;;8.88;5.50;;;;;;;13.43;71.75;101272.16;1572318;90;27451;-64
2022/10/09 10:02:42;;;;;;;10.00;5.92;;;;;;;13.39;72.21;101271.14;1611214;88;25704;-65
2022/10/09 10:05:25;;;;;;;9.98;4.90;;;;;;;13.33;71.82;101275.62;1601214;88;30292;-66
2022/10/09 10:07:52;;;;;;;5.85;4.80;;;;;;;13.27;71.71;101275.70;1611541;88;25797;-65
2022/10/09 10:10:25;;;;;;;12.90;7.20;;;;;;;13.25;71.62;101275.20;1606517;88;25814;-65
2022/10/09 10:12:58;;;;;;;10.95;6.33;;;;;;;13.27;71.98;101280.33;1611629;88;28146;-67
2022/10/09 10:15:31;;;;;;;10.70;7.12;;;;;;;13.38;72.79;101285.85;1606859;88;25704;-64
2022/10/09 10:18:05;;;;;;;21.30;9.20;;;;;;;13.52;72.90;101280.92;1611923;88;25793;-65
2022/10/09 10:20:42;;;;;;;7.55;5.22;;;;;;;13.59;72.51;101279.42;1601534;88;26403;-65
2022/10/09 10:23:41;;;;;;;14.60;7.22;;;;;;;13.63;72.52;101281.77;1610222;88;25676;-67
2022/10/09 10:26:42;;;;;;;18.83;9.77;;;;;;;13.66;71.99;101274.13;1637904;86;27436;-64
2022/10/09 10:29:24;;;;;;;8.80;5.72;;;;;;;13.67;71.96;101283.31;1639606;86;26416;-66
2022/10/09 10:32:24;;;;;;;8.65;5.10;;;;;;;13.62;70.68;101283.42;1639787;86;25687;-65
2022/10/09 10:35:17;;;;;;;11.78;6.62;;;;;;;13.53;70.48;101287.98;1634837;85;25768;-66
2022/10/09 10:38:08;;;;;;;18.00;7.67;;;;;;;13.49;70.99;101284.28;1672679;84;25790;-66
2022/10/09 10:40:46;;;;;;;8.48;5.53;;;;;;;13.48;71.27;101283.45;1673804;84;27951;-65
2022/10/09 10:43:41;;;;;;;9.53;7.05;;;;;;;13.47;70.87;101290.55;1649677;85;26256;-65
2022/10/09 10:46:22;;;;;;;11.22;5.83;;;;;;;13.44;71.08;101291.98;1595225;88;25436;-66
2022/10/09 10:48:50;;;;;;;10.43;4.60;;;;;;;13.44;70.73;101300.12;1599788;88;25764;-66
2022/10/09 10:51:38;;;;;;;7.15;4.85;;;;;;;13.38;70.38;101295.36;1637661;87;25829;-65
2022/10/09 10:54:25;;;;;;;5.58;3.83;;;;;;;13.31;70.03;101298.19;1634707;87;27363;-66
2022/10/09 10:57:18;;;;;;;8.80;4.15;;;;;;;13.20;69.87;101303.83;1627052;87;26298;-66
2022/10/09 11:00:05;;;;;;;5.65;3.60;;;;;;;13.19;70.46;101308.20;1631664;87;25843;-66
2022/10/09 11:02:58;;;;;;;5.47;4.00;;;;;;;13.23;70.80;101303.80;1627815;87;25832;-65
2022/10/09 11:05:33;;;;;;;9.95;4.72;;;;;;;13.28;70.94;101309.13;1608193;84;34605;-66
2022/10/09 11:08:22;;;;;;;9.93;6.35;;;;;;;13.23;70.34;101307.87;1606419;87;27661;-65
2022/10/09 11:11:14;;;;;;;10.98;5.37;;;;;;;13.16;69.84;101311.52;1615207;87;25929;-66
2022/10/09 11:13:57;;;;;;;9.33;4.83;;;;;;;13.03;69.88;101311.22;1610674;87;25804;-66
2022/10/09 11:16:44;;;;;;;23.90;10.60;;;;;;;12.98;70.25;101309.95;1582911;90;26591;-67
2022/10/09 11:20:04;;;;;;;16.02;7.65;;;;;;;12.98;70.51;101307.23;1563663;91;25698;-66
2022/10/09 11:23:17;;;;;;;21.87;9.35;;;;;;;12.99;70.96;101305.31;1570970;89;27570;-66
2022/10/09 11:25:51;;;;;;;15.45;7.62;;;;;;;12.97;70.72;101307.53;1600539;88;25631;-65
2022/10/09 11:28:26;;;;;;;19.15;8.78;;;;;;;13.03;70.89;101303.06;1606443;88;25808;-65
2022/10/09 11:31:05;;;;;;;10.10;5.55;;;;;;;13.08;71.06;101305.69;1605164;88;25667;-67
2022/10/09 11:33:38;;;;;;;8.60;5.55;;;;;;;13.10;70.27;101308.10;1603220;89;25753;-66
2022/10/09 11:36:28;;;;;;;9.25;5.45;;;;;;;13.07;70.29;101299.98;1612307;88;28206;-66
2022/10/09 11:38:57;;;;;;;;;;;;;;;13.02;70.18;101300.65;1649665;86;25754;-67
2022/10/09 11:41:26;;;;;;;7.00;4.17;;;;;;;13.01;69.94;101301.77;1639130;86;25692;-68
2022/10/09 11:44:33;;;;;;;7.80;4.92;;;;;;;12.96;69.87;101301.87;1625985;86;25613;-67
2022/10/09 11:47:35;;;;;;;8.75;4.70;;;;;;;12.90;69.98;101307.92;1588585;89;25860;-67
2022/10/09 11:50:33;;;;;;;6.78;4.58;;;;;;;12.90;70.10;101301.14;1583608;89;27380;-67
2022/10/09 11:53:15;;;;;;;5.45;4.60;;;;;;;12.89;70.43;101303.05;1558601;90;25765;-67